createdAt,value
2023-04-06T00:03:49.600Z,16.97
2023-04-06T00:08:51.607Z,19.43
2023-04-06T00:13:53.790Z,18.23
2023-04-06T00:18:56.293Z,18.37
2023-04-06T00:23:58.506Z,17.60
2023-04-06T00:29:01.092Z,19.03
2023-04-06T00:34:03.184Z,16.30
2023-04-06T00:39:05.087Z,18.07
2023-04-06T00:44:07.334Z,16.17
2023-04-06T00:49:09.655Z,17.57
2023-04-06T00:54:11.825Z,14.50
2023-04-06T00:59:14.908Z,15.50
2023-04-06T01:04:17.765Z,18.33
2023-04-06T01:09:20.262Z,16.70
2023-04-06T01:14:23.508Z,17.90
2023-04-06T01:19:32.060Z,14.93
2023-04-06T01:24:35.349Z,14.57
2023-04-06T01:29:43.908Z,16.87
2023-04-06T01:34:50.989Z,13.03
2023-04-06T01:39:53.767Z,17.20
2023-04-06T01:45:09.262Z,19.63
2023-04-06T01:50:11.505Z,14.67
2023-04-06T01:55:19.034Z,18.30
2023-04-06T02:00:47.096Z,15.50
2023-04-06T02:05:49.687Z,15.80
2023-04-06T02:11:01.035Z,17.67
2023-04-06T02:16:12.125Z,15.87
2023-04-06T02:21:14.750Z,18.90
2023-04-06T02:26:16.822Z,20.83
2023-04-06T02:31:18.978Z,21.40
2023-04-06T02:36:21.145Z,20.73
2023-04-06T02:41:23.337Z,21.30
2023-04-06T02:46:25.966Z,17.97
2023-04-06T02:51:28.266Z,18.40
2023-04-06T02:56:38.677Z,20.23
2023-04-06T03:01:41.118Z,19.43
2023-04-06T03:06:43.478Z,19.67
2023-04-06T03:11:56.293Z,17.10
2023-04-06T03:16:59.847Z,17.03
2023-04-06T03:22:02.062Z,17.13
2023-04-06T03:27:04.135Z,17.70
2023-04-06T03:32:09.246Z,19.33
2023-04-06T03:37:16.328Z,21.57
2023-04-06T03:42:24.913Z,17.67
2023-04-06T03:47:39.645Z,18.13
2023-04-06T03:52:43.690Z,17.93
2023-04-06T03:57:45.756Z,18.07
2023-04-06T04:02:47.832Z,17.60
2023-04-06T04:07:49.889Z,20.23
2023-04-06T04:12:52.173Z,18.93
2023-04-06T04:17:54.507Z,20.20
2023-04-06T04:22:56.565Z,17.03
2023-04-06T04:27:58.850Z,16.93
2023-04-06T04:33:01.540Z,21.93
2023-04-06T04:38:04.938Z,26.30
2023-04-06T04:43:09.110Z,24.10
2023-04-06T04:48:11.443Z,19.33
2023-04-06T04:53:33.838Z,17.53
2023-04-06T04:58:44.921Z,19.00
2023-04-06T05:03:48.169Z,19.23
2023-04-06T05:08:52.682Z,19.67
2023-04-06T05:13:56.200Z,22.53
2023-04-06T05:19:00.263Z,22.97
2023-04-06T05:24:11.574Z,20.50
2023-04-06T05:29:19.578Z,19.80
2023-04-06T05:34:21.773Z,18.73
2023-04-06T05:39:25.714Z,18.90
2023-04-06T05:44:29.604Z,21.23
2023-04-06T05:49:42.971Z,18.77
2023-04-06T05:54:51.165Z,17.00
2023-04-06T05:59:53.814Z,18.57
2023-04-06T06:04:58.192Z,21.03
2023-04-06T06:10:03.826Z,22.90
2023-04-06T06:15:09.885Z,21.63
2023-04-06T06:20:16.993Z,22.50
2023-04-06T06:25:20.075Z,26.13
2023-04-06T06:30:24.032Z,24.43
2023-04-06T06:35:27.279Z,23.47
2023-04-06T06:40:29.674Z,20.80
2023-04-06T06:45:32.642Z,22.57
2023-04-06T06:50:34.750Z,24.23
2023-04-06T06:55:37.014Z,21.40
2023-04-06T07:00:39.257Z,19.43
2023-04-06T07:05:54.068Z,22.17
2023-04-06T07:10:57.725Z,19.10
2023-04-06T07:16:00.368Z,18.97
2023-04-06T07:21:03.958Z,19.50
2023-04-06T07:26:06.126Z,21.03
2023-04-06T07:31:08.272Z,18.60
2023-04-06T07:36:10.843Z,22.83
2023-04-06T07:41:13.230Z,18.40
2023-04-06T07:46:15.927Z,21.80
2023-04-06T07:51:18.598Z,20.13
2023-04-06T07:56:22.408Z,17.70
2023-04-06T08:01:24.883Z,18.47
2023-04-06T08:06:27.276Z,15.23
2023-04-06T08:11:29.753Z,13.70
2023-04-06T08:16:31.938Z,14.27
2023-04-06T08:21:34.549Z,11.40
2023-04-06T08:26:36.663Z,14.20
2023-04-06T08:31:39.072Z,14.13
2023-04-06T08:36:42.260Z,11.93
2023-04-06T08:41:45.070Z,17.00
2023-04-06T08:46:47.509Z,12.03
2023-04-06T08:51:50.693Z,13.07
2023-04-06T08:56:54.120Z,10.30
2023-04-06T09:01:56.854Z,11.23
2023-04-06T09:06:58.822Z,10.57
2023-04-06T09:12:06.863Z,10.50
2023-04-06T09:17:08.998Z,12.90
2023-04-06T09:22:11.036Z,8.40
2023-04-06T09:27:14.361Z,12.30
2023-04-06T09:32:17.972Z,13.77
2023-04-06T09:37:20.446Z,15.23
2023-04-06T09:42:26.586Z,15.67
2023-04-06T09:47:30.038Z,15.17
2023-04-06T09:52:39.468Z,13.07
2023-04-06T09:58:13.820Z,13.03
2023-04-06T10:03:27.891Z,13.93
2023-04-06T10:08:33.158Z,15.37
2023-04-06T10:13:35.641Z,15.37
2023-04-06T10:18:40.521Z,13.57
2023-04-06T10:23:54.935Z,13.60
2023-04-06T10:29:04.762Z,12.90
2023-04-06T10:34:07.459Z,11.80
2023-04-06T10:39:09.797Z,11.40
2023-04-06T10:44:21.144Z,12.30
2023-04-06T10:49:25.203Z,10.73
2023-04-06T10:54:29.388Z,11.53
2023-04-06T10:59:31.535Z,16.73
2023-04-06T11:04:33.747Z,17.00
2023-04-06T11:09:37.640Z,16.30
2023-04-06T11:14:39.902Z,15.03
2023-04-06T11:19:41.816Z,13.40
2023-04-06T11:24:43.898Z,12.63
2023-04-06T11:29:49.147Z,13.30
2023-04-06T11:34:51.100Z,14.80
2023-04-06T11:39:55.465Z,15.23
2023-04-06T11:44:58.697Z,14.83
2023-04-06T11:50:08.598Z,12.00
2023-04-06T11:55:13.970Z,12.00
2023-04-06T12:00:16.616Z,12.60
2023-04-06T12:05:18.603Z,11.37
2023-04-06T12:10:20.978Z,12.40
2023-04-06T12:15:23.064Z,10.60
2023-04-06T12:20:26.523Z,12.93
2023-04-06T12:25:30.578Z,11.30
2023-04-06T12:30:33.514Z,14.03
2023-04-06T12:35:36.459Z,9.83
2023-04-06T12:40:40.062Z,11.40
2023-04-06T12:45:42.255Z,11.57
2023-04-06T12:50:44.557Z,12.83
2023-04-06T12:55:46.807Z,11.40
2023-04-06T13:00:49.937Z,12.53
2023-04-06T13:05:52.129Z,8.80
2023-04-06T13:10:55.005Z,8.83
2023-04-06T13:16:03.746Z,11.17
2023-04-06T13:21:07.923Z,11.30
2023-04-06T13:26:10.345Z,10.23
2023-04-06T13:31:12.658Z,10.97
2023-04-06T13:36:17.849Z,12.37
2023-04-06T13:41:22.011Z,15.40
2023-04-06T13:46:25.257Z,12.13
2023-04-06T13:51:28.015Z,14.20
2023-04-06T13:56:30.063Z,14.10
2023-04-06T14:01:32.112Z,12.53
2023-04-06T14:06:34.200Z,14.83
2023-04-06T14:11:37.861Z,15.73
2023-04-06T14:16:40.025Z,12.73
2023-04-06T14:21:45.676Z,11.17
2023-04-06T14:26:47.967Z,13.43
2023-04-06T14:31:49.946Z,13.17
2023-04-06T14:36:51.783Z,12.93
2023-04-06T14:41:54.055Z,11.27
2023-04-06T14:46:56.224Z,12.07
2023-04-06T14:51:58.371Z,13.60
2023-04-06T14:57:01.558Z,13.33
2023-04-06T15:02:04.892Z,13.60
2023-04-06T15:07:06.882Z,13.50
2023-04-06T15:12:08.937Z,20.90
2023-04-06T15:17:10.718Z,14.27
2023-04-06T15:22:12.766Z,12.37
2023-04-06T15:27:14.606Z,16.53
2023-04-06T15:32:17.022Z,19.10
2023-04-06T15:37:19.377Z,17.43
2023-04-06T15:42:21.370Z,15.77
2023-04-06T15:47:23.423Z,16.03
2023-04-06T15:52:25.842Z,16.63
2023-04-06T15:57:27.836Z,21.07
2023-04-06T16:02:29.873Z,16.60
2023-04-06T16:07:32.908Z,24.80
2023-04-06T16:12:34.888Z,19.17
2023-04-06T16:17:36.805Z,22.57
2023-04-06T16:22:38.683Z,17.40
2023-04-06T16:27:40.679Z,19.07
2023-04-06T16:32:43.395Z,16.83
2023-04-06T16:37:46.568Z,17.20
2023-04-06T16:42:48.615Z,19.40
2023-04-06T16:47:50.952Z,22.93
2023-04-06T16:52:53.033Z,20.37
2023-04-06T16:57:56.237Z,22.23
2023-04-06T17:02:58.259Z,23.77
2023-04-06T17:08:00.612Z,22.47
2023-04-06T17:13:02.853Z,27.17
2023-04-06T17:18:04.908Z,21.00
2023-04-06T17:23:07.081Z,21.53
2023-04-06T17:28:09.190Z,23.50
2023-04-06T17:33:12.510Z,22.60
2023-04-06T17:38:14.491Z,17.33
2023-04-06T17:43:17.094Z,15.67
2023-04-06T17:48:19.589Z,15.80
2023-04-06T17:53:21.889Z,23.07
2023-04-06T17:58:24.284Z,18.83
2023-04-06T18:03:26.156Z,14.30
2023-04-06T18:08:28.160Z,14.57
2023-04-06T18:13:30.297Z,16.23
2023-04-06T18:18:32.289Z,18.93
2023-04-06T18:23:34.764Z,14.80
2023-04-06T18:28:36.814Z,20.03
2023-04-06T18:33:38.876Z,17.33
2023-04-06T18:38:42.932Z,25.57
2023-04-06T18:43:44.780Z,20.67
2023-04-06T18:48:46.780Z,25.23
2023-04-06T18:53:48.796Z,20.07
2023-04-06T18:58:50.882Z,20.60
2023-04-06T19:03:54.105Z,17.63
2023-04-06T19:08:56.761Z,15.03
2023-04-06T19:13:59.210Z,9.80
2023-04-06T19:19:01.318Z,9.87
2023-04-06T19:24:03.246Z,6.20
2023-04-06T19:29:05.296Z,9.37
2023-04-06T19:34:08.158Z,9.27
2023-04-06T19:39:10.366Z,9.17
2023-04-06T19:44:12.222Z,12.20
2023-04-06T19:49:14.318Z,16.37
2023-04-06T19:54:16.316Z,11.83
2023-04-06T19:59:18.422Z,14.43
2023-04-06T20:04:20.830Z,21.47
2023-04-06T20:09:22.997Z,12.87
2023-04-06T20:14:26.211Z,13.87
2023-04-06T20:19:28.501Z,18.80
2023-04-06T20:24:31.336Z,13.73
2023-04-06T20:29:33.339Z,19.17
2023-04-06T20:34:35.194Z,15.10
2023-04-06T20:39:37.499Z,15.43
2023-04-06T20:44:39.575Z,15.93
2023-04-06T20:49:42.127Z,11.20
2023-04-06T20:54:43.933Z,11.17
2023-04-06T20:59:45.960Z,14.03
2023-04-06T21:04:48.068Z,10.27
2023-04-06T21:09:50.280Z,7.73
2023-04-06T21:14:53.145Z,9.47
2023-04-06T21:19:54.935Z,6.53
2023-04-06T21:24:56.943Z,8.73
2023-04-06T21:29:58.764Z,8.87
2023-04-06T21:35:00.715Z,6.13
2023-04-06T21:40:04.088Z,7.37
2023-04-06T21:45:06.501Z,13.57
2023-04-06T21:50:08.700Z,17.57
2023-04-06T21:55:11.347Z,11.97
2023-04-06T22:00:14.166Z,16.50
2023-04-06T22:05:18.919Z,16.47
2023-04-06T22:10:20.967Z,21.53
2023-04-06T22:15:23.206Z,19.20
2023-04-06T22:20:25.085Z,19.70
2023-04-06T22:25:27.132Z,15.90
2023-04-06T22:30:29.129Z,17.20
2023-04-06T22:35:31.186Z,17.37
2023-04-06T22:40:33.334Z,15.53
2023-04-06T22:45:35.370Z,23.07
2023-04-06T22:50:37.200Z,21.47
2023-04-06T22:55:40.845Z,23.20
2023-04-06T23:00:42.711Z,18.10
2023-04-06T23:05:45.103Z,15.30
2023-04-06T23:10:47.189Z,20.33
2023-04-06T23:15:49.178Z,21.20
2023-04-06T23:20:51.219Z,15.77
2023-04-06T23:25:53.046Z,19.10
2023-04-06T23:30:54.924Z,23.27
2023-04-06T23:35:57.078Z,21.43
2023-04-06T23:40:59.086Z,20.67
2023-04-06T23:46:01.773Z,23.70
2023-04-06T23:51:03.784Z,22.93
2023-04-06T23:56:06.006Z,22.67
